LGR888 CYHI-CYPC
Flight info
| Callsign | LGR888 |
|---|---|
| Flight time | 1h 40m |
| Altitude | 4000 |
| Route | HI AR14 YPC |
| Aircraft | R66/L-SFG/C |
Departure
| Time | 2026-05-07 08:48 |
|---|---|
| Airport | Ulukhaktok Holman Airport (CYHI) |
Arrival
| Time | 2026-05-07 10:28 |
|---|---|
| Airport | Paulatuk (Nora Aliqatchialuk Ruben) Airport (CYPC) |
| Time | Latitude | Longitude | Altitude | Speed | Heading |
|---|---|---|---|---|---|
| 2026-05-07 08:38 | 70.76122 | -117.80300 | 98 ft | 0 kts | 246° |
| 2026-05-07 08:43 | 70.76121 | -117.80308 | 105 ft | 4 kts | 281° |
| 2026-05-07 08:43 | 70.76159 | -117.80303 | 112 ft | 4 kts | 7° |
| 2026-05-07 08:44 | 70.76199 | -117.80321 | 112 ft | 6 kts | 355° |
| 2026-05-07 08:44 | 70.76243 | -117.80376 | 112 ft | 6 kts | 9° |
| 2026-05-07 08:44 | 70.76283 | -117.80415 | 112 ft | 5 kts | 19° |
| 2026-05-07 08:44 | 70.76330 | -117.80324 | 110 ft | 11 kts | 75° |
| 2026-05-07 08:45 | 70.76367 | -117.80131 | 110 ft | 12 kts | 73° |
| 2026-05-07 08:45 | 70.76413 | -117.79861 | 105 ft | 16 kts | 79° |
| 2026-05-07 08:45 | 70.76469 | -117.79549 | 104 ft | 13 kts | 72° |
| 2026-05-07 08:45 | 70.76503 | -117.79364 | 100 ft | 9 kts | 78° |
| 2026-05-07 08:46 | 70.76534 | -117.79173 | 101 ft | 8 kts | 78° |
| 2026-05-07 08:46 | 70.76558 | -117.79031 | 107 ft | 5 kts | 290° |
| 2026-05-07 08:46 | 70.76560 | -117.79056 | 90 ft | 3 kts | 266° |
| 2026-05-07 08:46 | 70.76562 | -117.79051 | 88 ft | 0 kts | 254° |
| 2026-05-07 08:47 | 70.76534 | -117.79273 | 101 ft | 46 kts | 249° |
| 2026-05-07 08:47 | 70.76298 | -117.80559 | 186 ft | 87 kts | 243° |
| 2026-05-07 08:47 | 70.75872 | -117.82082 | 274 ft | 99 kts | 211° |
| 2026-05-07 08:48 | 70.75316 | -117.82849 | 688 ft | 75 kts | 227° |
| 2026-05-07 08:48 | 70.75133 | -117.84155 | 1042 ft | 76 kts | 256° |
| 2026-05-07 08:48 | 70.74943 | -117.86127 | 846 ft | 113 kts | 248° |
| 2026-05-07 08:48 | 70.74760 | -117.88470 | 624 ft | 126 kts | 264° |
| 2026-05-07 08:49 | 70.75069 | -117.90777 | 654 ft | 112 kts | 305° |
| 2026-05-07 08:49 | 70.75301 | -117.92998 | 589 ft | 114 kts | 264° |
| 2026-05-07 08:49 | 70.75148 | -117.95355 | 565 ft | 117 kts | 269° |
| 2026-05-07 08:49 | 70.75490 | -117.97571 | 529 ft | 118 kts | 309° |
| 2026-05-07 08:50 | 70.76102 | -117.99070 | 496 ft | 119 kts | 298° |
| 2026-05-07 08:50 | 70.75790 | -118.00093 | 942 ft | 58 kts | 200° |
| 2026-05-07 08:50 | 70.75654 | -118.00524 | 1368 ft | 24 kts | 324° |
| 2026-05-07 08:50 | 70.75861 | -118.00947 | 1462 ft | 62 kts | 337° |
| 2026-05-07 08:51 | 70.75823 | -118.02217 | 1750 ft | 70 kts | 225° |
| 2026-05-07 08:51 | 70.75435 | -118.01572 | 2201 ft | 63 kts | 148° |
| 2026-05-07 08:51 | 70.75295 | -118.01637 | 2554 ft | 28 kts | 304° |
| 2026-05-07 08:51 | 70.75098 | -118.02535 | 2513 ft | 69 kts | 217° |
| 2026-05-07 08:52 | 70.74580 | -118.02747 | 2630 ft | 80 kts | 185° |
| 2026-05-07 08:52 | 70.73991 | -118.02685 | 2668 ft | 88 kts | 181° |
| 2026-05-07 08:52 | 70.73344 | -118.02566 | 2649 ft | 97 kts | 180° |
| 2026-05-07 08:52 | 70.72684 | -118.02396 | 2705 ft | 92 kts | 187° |
| 2026-05-07 08:53 | 70.72145 | -118.03206 | 2746 ft | 87 kts | 230° |
| 2026-05-07 08:53 | 70.71778 | -118.04623 | 2778 ft | 84 kts | 236° |
| 2026-05-07 08:53 | 70.71446 | -118.06080 | 2819 ft | 84 kts | 236° |
| 2026-05-07 08:53 | 70.71130 | -118.07526 | 2852 ft | 82 kts | 238° |
| 2026-05-07 08:54 | 70.70824 | -118.08992 | 2956 ft | 83 kts | 239° |
| 2026-05-07 08:54 | 70.70512 | -118.10538 | 3030 ft | 87 kts | 240° |
| 2026-05-07 08:54 | 70.70198 | -118.12114 | 3088 ft | 87 kts | 240° |
| 2026-05-07 08:54 | 70.69888 | -118.13682 | 3126 ft | 86 kts | 242° |
| 2026-05-07 08:55 | 70.69603 | -118.15130 | 3273 ft | 76 kts | 241° |
| 2026-05-07 08:55 | 70.69346 | -118.16445 | 3405 ft | 71 kts | 242° |
| 2026-05-07 08:55 | 70.69103 | -118.17687 | 3580 ft | 67 kts | 243° |
| 2026-05-07 08:55 | 70.68872 | -118.18874 | 3737 ft | 64 kts | 245° |
| 2026-05-07 08:56 | 70.68645 | -118.20043 | 3887 ft | 65 kts | 246° |
| 2026-05-07 08:56 | 70.68415 | -118.21227 | 4040 ft | 66 kts | 246° |
| 2026-05-07 08:56 | 70.68182 | -118.22421 | 4196 ft | 65 kts | 247° |
| 2026-05-07 08:56 | 70.67954 | -118.23592 | 4355 ft | 64 kts | 247° |
| 2026-05-07 08:57 | 70.67733 | -118.24715 | 4504 ft | 62 kts | 248° |
| 2026-05-07 08:57 | 70.67519 | -118.25807 | 4653 ft | 60 kts | 249° |
| 2026-05-07 08:57 | 70.67313 | -118.26856 | 4802 ft | 57 kts | 250° |
| 2026-05-07 08:57 | 70.67106 | -118.27936 | 4895 ft | 64 kts | 249° |
| 2026-05-07 08:58 | 70.66873 | -118.29142 | 4959 ft | 69 kts | 245° |
| 2026-05-07 08:58 | 70.66623 | -118.30404 | 5032 ft | 71 kts | 245° |
| 2026-05-07 08:58 | 70.66364 | -118.31709 | 5107 ft | 72 kts | 245° |
| 2026-05-07 08:58 | 70.66106 | -118.33008 | 5182 ft | 73 kts | 244° |
| 2026-05-07 08:59 | 70.65844 | -118.34322 | 5256 ft | 73 kts | 244° |
| 2026-05-07 08:59 | 70.65588 | -118.35614 | 5332 ft | 73 kts | 244° |
| 2026-05-07 08:59 | 70.65327 | -118.36932 | 5405 ft | 72 kts | 244° |
| 2026-05-07 08:59 | 70.65072 | -118.38219 | 5480 ft | 72 kts | 244° |
| 2026-05-07 09:00 | 70.64816 | -118.39505 | 5555 ft | 72 kts | 245° |
| 2026-05-07 09:00 | 70.64557 | -118.40808 | 5632 ft | 72 kts | 245° |
| 2026-05-07 09:00 | 70.64299 | -118.42107 | 5707 ft | 72 kts | 245° |
| 2026-05-07 09:00 | 70.64043 | -118.43403 | 5781 ft | 73 kts | 245° |
| 2026-05-07 09:01 | 70.63783 | -118.44711 | 5856 ft | 73 kts | 245° |
| 2026-05-07 09:01 | 70.63522 | -118.46021 | 5958 ft | 70 kts | 246° |
| 2026-05-07 09:01 | 70.63284 | -118.47208 | 6086 ft | 65 kts | 248° |
| 2026-05-07 09:01 | 70.63059 | -118.48341 | 6212 ft | 61 kts | 248° |
| 2026-05-07 09:02 | 70.62843 | -118.49434 | 6339 ft | 59 kts | 249° |
| 2026-05-07 09:02 | 70.62631 | -118.50529 | 6402 ft | 65 kts | 248° |
| 2026-05-07 09:02 | 70.62386 | -118.51774 | 6447 ft | 71 kts | 245° |
| 2026-05-07 09:02 | 70.62110 | -118.53013 | 6509 ft | 71 kts | 245° |
| 2026-05-07 09:03 | 70.61863 | -118.54288 | 6587 ft | 71 kts | 245° |
| 2026-05-07 09:03 | 70.61612 | -118.55567 | 6668 ft | 70 kts | 245° |
| 2026-05-07 09:03 | 70.61365 | -118.56818 | 6773 ft | 68 kts | 245° |
| 2026-05-07 09:03 | 70.61126 | -118.58027 | 6873 ft | 67 kts | 245° |
| 2026-05-07 09:04 | 70.60889 | -118.59223 | 6975 ft | 66 kts | 245° |
| 2026-05-07 09:04 | 70.60653 | -118.60413 | 7070 ft | 66 kts | 245° |
| 2026-05-07 09:04 | 70.60414 | -118.61620 | 7142 ft | 69 kts | 245° |
| 2026-05-07 09:04 | 70.60163 | -118.62877 | 7216 ft | 70 kts | 244° |
| 2026-05-07 09:05 | 70.59910 | -118.64140 | 7290 ft | 72 kts | 244° |
| 2026-05-07 09:05 | 70.59650 | -118.65439 | 7367 ft | 72 kts | 243° |
| 2026-05-07 09:05 | 70.59389 | -118.66738 | 7443 ft | 72 kts | 243° |
| 2026-05-07 09:05 | 70.59132 | -118.68008 | 7519 ft | 71 kts | 243° |
| 2026-05-07 09:06 | 70.58877 | -118.69280 | 7598 ft | 70 kts | 243° |
| 2026-05-07 09:06 | 70.58625 | -118.70531 | 7675 ft | 70 kts | 243° |
| 2026-05-07 09:06 | 70.58375 | -118.71777 | 7751 ft | 70 kts | 243° |
| 2026-05-07 09:06 | 70.58125 | -118.73021 | 7828 ft | 69 kts | 243° |
| 2026-05-07 09:07 | 70.57876 | -118.74258 | 7906 ft | 69 kts | 243° |
| 2026-05-07 09:07 | 70.57622 | -118.75519 | 7962 ft | 72 kts | 242° |
| 2026-05-07 09:07 | 70.57353 | -118.76856 | 7988 ft | 75 kts | 242° |
| 2026-05-07 09:07 | 70.57082 | -118.78188 | 8070 ft | 73 kts | 242° |
| 2026-05-07 09:08 | 70.56823 | -118.79467 | 8147 ft | 71 kts | 243° |
| 2026-05-07 09:08 | 70.56568 | -118.80731 | 8224 ft | 71 kts | 243° |
| 2026-05-07 09:08 | 70.56313 | -118.81992 | 8302 ft | 70 kts | 243° |
| 2026-05-07 09:08 | 70.56061 | -118.83245 | 8379 ft | 70 kts | 244° |
| 2026-05-07 09:09 | 70.55808 | -118.84495 | 8456 ft | 70 kts | 244° |
| 2026-05-07 09:09 | 70.55555 | -118.85749 | 8534 ft | 70 kts | 243° |
| 2026-05-07 09:09 | 70.55302 | -118.87003 | 8610 ft | 70 kts | 243° |
| 2026-05-07 09:09 | 70.55046 | -118.88265 | 8686 ft | 71 kts | 243° |
| 2026-05-07 09:10 | 70.54791 | -118.89523 | 8763 ft | 71 kts | 243° |
| 2026-05-07 09:10 | 70.54536 | -118.90778 | 8839 ft | 71 kts | 243° |
| 2026-05-07 09:10 | 70.54281 | -118.92039 | 8917 ft | 71 kts | 243° |
| 2026-05-07 09:10 | 70.54026 | -118.93293 | 8993 ft | 70 kts | 243° |
| 2026-05-07 09:11 | 70.53770 | -118.94554 | 9070 ft | 70 kts | 242° |
| 2026-05-07 09:11 | 70.53516 | -118.95805 | 9147 ft | 70 kts | 242° |
| 2026-05-07 09:11 | 70.53264 | -118.97046 | 9223 ft | 70 kts | 242° |
| 2026-05-07 09:11 | 70.53011 | -118.98283 | 9300 ft | 70 kts | 242° |
| 2026-05-07 09:12 | 70.52757 | -118.99528 | 9376 ft | 69 kts | 242° |
| 2026-05-07 09:12 | 70.52506 | -119.00758 | 9453 ft | 69 kts | 242° |
| 2026-05-07 09:12 | 70.52256 | -119.01982 | 9530 ft | 69 kts | 242° |
| 2026-05-07 09:12 | 70.52007 | -119.03205 | 9607 ft | 69 kts | 243° |
| 2026-05-07 09:13 | 70.51759 | -119.04421 | 9683 ft | 69 kts | 242° |
| 2026-05-07 09:13 | 70.51509 | -119.05649 | 9760 ft | 69 kts | 243° |
| 2026-05-07 09:13 | 70.51259 | -119.06877 | 9837 ft | 69 kts | 243° |
| 2026-05-07 09:13 | 70.51008 | -119.08106 | 9913 ft | 69 kts | 243° |
| 2026-05-07 09:14 | 70.50759 | -119.09327 | 9989 ft | 69 kts | 243° |
| 2026-05-07 09:14 | 70.50505 | -119.10569 | 10066 ft | 69 kts | 243° |
| 2026-05-07 09:14 | 70.50256 | -119.11789 | 10141 ft | 69 kts | 243° |
| 2026-05-07 09:14 | 70.50002 | -119.13028 | 10218 ft | 69 kts | 242° |
| 2026-05-07 09:15 | 70.49750 | -119.14260 | 10294 ft | 69 kts | 242° |
| 2026-05-07 09:15 | 70.49497 | -119.15491 | 10371 ft | 69 kts | 242° |
| 2026-05-07 09:15 | 70.49247 | -119.16708 | 10447 ft | 69 kts | 243° |
| 2026-05-07 09:15 | 70.48995 | -119.17929 | 10524 ft | 68 kts | 243° |
| 2026-05-07 09:16 | 70.48747 | -119.19145 | 10602 ft | 68 kts | 242° |
| 2026-05-07 09:16 | 70.48501 | -119.20343 | 10678 ft | 68 kts | 242° |
| 2026-05-07 09:16 | 70.48251 | -119.21555 | 10755 ft | 68 kts | 242° |
| 2026-05-07 09:16 | 70.48006 | -119.22744 | 10832 ft | 68 kts | 242° |
| 2026-05-07 09:17 | 70.47759 | -119.23950 | 10909 ft | 68 kts | 242° |
| 2026-05-07 09:17 | 70.47511 | -119.25149 | 10974 ft | 70 kts | 242° |
| 2026-05-07 09:17 | 70.47243 | -119.26458 | 10983 ft | 76 kts | 240° |
| 2026-05-07 09:17 | 70.46955 | -119.27850 | 10986 ft | 81 kts | 239° |
| 2026-05-07 09:18 | 70.46654 | -119.29298 | 10986 ft | 83 kts | 239° |
| 2026-05-07 09:18 | 70.46344 | -119.30785 | 10986 ft | 85 kts | 239° |
| 2026-05-07 09:18 | 70.46030 | -119.32288 | 10987 ft | 85 kts | 239° |
| 2026-05-07 09:18 | 70.45715 | -119.33807 | 10985 ft | 86 kts | 239° |
| 2026-05-07 09:19 | 70.45401 | -119.35316 | 10984 ft | 86 kts | 238° |
| 2026-05-07 09:19 | 70.45081 | -119.36848 | 10986 ft | 86 kts | 238° |
| 2026-05-07 09:19 | 70.44767 | -119.38354 | 10987 ft | 86 kts | 239° |
| 2026-05-07 09:19 | 70.44447 | -119.39888 | 10988 ft | 86 kts | 239° |
| 2026-05-07 09:20 | 70.44132 | -119.41401 | 10989 ft | 87 kts | 239° |
| 2026-05-07 09:20 | 70.43812 | -119.42940 | 10988 ft | 87 kts | 239° |
| 2026-05-07 09:20 | 70.43492 | -119.44472 | 10984 ft | 88 kts | 239° |
| 2026-05-07 09:20 | 70.43172 | -119.46011 | 10982 ft | 88 kts | 239° |
| 2026-05-07 09:21 | 70.42846 | -119.47576 | 10982 ft | 88 kts | 239° |
| 2026-05-07 09:21 | 70.42522 | -119.49123 | 10985 ft | 88 kts | 239° |
| 2026-05-07 09:21 | 70.42200 | -119.50669 | 10980 ft | 89 kts | 239° |
| 2026-05-07 09:21 | 70.41876 | -119.52223 | 10978 ft | 89 kts | 238° |
| 2026-05-07 09:22 | 70.41547 | -119.53798 | 10980 ft | 89 kts | 238° |
| 2026-05-07 09:22 | 70.41219 | -119.55364 | 10979 ft | 89 kts | 238° |
| 2026-05-07 09:22 | 70.40894 | -119.56918 | 10981 ft | 89 kts | 238° |
| 2026-05-07 09:22 | 70.40564 | -119.58492 | 10984 ft | 89 kts | 239° |
| 2026-05-07 09:23 | 70.40232 | -119.60076 | 10980 ft | 90 kts | 238° |
| 2026-05-07 09:23 | 70.39900 | -119.61659 | 10977 ft | 90 kts | 238° |
| 2026-05-07 09:23 | 70.39570 | -119.63229 | 10976 ft | 90 kts | 238° |
| 2026-05-07 09:23 | 70.39239 | -119.64804 | 10975 ft | 90 kts | 238° |
| 2026-05-07 09:24 | 70.38906 | -119.66388 | 10977 ft | 90 kts | 237° |
| 2026-05-07 09:24 | 70.38576 | -119.67954 | 10980 ft | 90 kts | 238° |
| 2026-05-07 09:24 | 70.38243 | -119.69537 | 10979 ft | 90 kts | 238° |
| 2026-05-07 09:24 | 70.37907 | -119.71137 | 10978 ft | 91 kts | 237° |
| 2026-05-07 09:25 | 70.37569 | -119.72737 | 10977 ft | 91 kts | 237° |
| 2026-05-07 09:25 | 70.37234 | -119.74323 | 10976 ft | 91 kts | 237° |
| 2026-05-07 09:25 | 70.36899 | -119.75912 | 10979 ft | 91 kts | 237° |
| 2026-05-07 09:25 | 70.36561 | -119.77515 | 10976 ft | 91 kts | 237° |
| 2026-05-07 09:26 | 70.36223 | -119.79109 | 10979 ft | 91 kts | 237° |
| 2026-05-07 09:26 | 70.35886 | -119.80700 | 10980 ft | 91 kts | 237° |
| 2026-05-07 09:26 | 70.35545 | -119.82310 | 10983 ft | 92 kts | 238° |
| 2026-05-07 09:26 | 70.35207 | -119.83906 | 10982 ft | 92 kts | 237° |
| 2026-05-07 09:27 | 70.34862 | -119.85530 | 10983 ft | 92 kts | 238° |
| 2026-05-07 09:27 | 70.34522 | -119.87136 | 10984 ft | 92 kts | 237° |
| 2026-05-07 09:27 | 70.33837 | -119.90359 | 10983 ft | 92 kts | 237° |
| 2026-05-07 09:28 | 70.33494 | -119.91969 | 10983 ft | 92 kts | 238° |
| 2026-05-07 09:28 | 70.33151 | -119.93587 | 10979 ft | 93 kts | 237° |
| 2026-05-07 09:28 | 70.32806 | -119.95207 | 10975 ft | 93 kts | 237° |
| 2026-05-07 09:28 | 70.32455 | -119.96850 | 10968 ft | 93 kts | 237° |
| 2026-05-07 09:29 | 70.32114 | -119.98446 | 10970 ft | 92 kts | 237° |
| 2026-05-07 09:29 | 70.31769 | -120.00066 | 10971 ft | 93 kts | 237° |
| 2026-05-07 09:29 | 70.31422 | -120.01688 | 10971 ft | 93 kts | 237° |
| 2026-05-07 09:29 | 70.31076 | -120.03307 | 10971 ft | 93 kts | 237° |
| 2026-05-07 09:30 | 70.30728 | -120.04929 | 10971 ft | 93 kts | 237° |
| 2026-05-07 09:30 | 70.30383 | -120.06544 | 10970 ft | 94 kts | 237° |
| 2026-05-07 09:30 | 70.30030 | -120.08190 | 10974 ft | 94 kts | 237° |
| 2026-05-07 09:30 | 70.29681 | -120.09820 | 10972 ft | 95 kts | 237° |
| 2026-05-07 09:31 | 70.29327 | -120.11469 | 10970 ft | 95 kts | 237° |
| 2026-05-07 09:31 | 70.28976 | -120.13109 | 10967 ft | 95 kts | 237° |
| 2026-05-07 09:31 | 70.28619 | -120.14768 | 10967 ft | 95 kts | 237° |
| 2026-05-07 09:31 | 70.28265 | -120.16412 | 10968 ft | 94 kts | 237° |
| 2026-05-07 09:32 | 70.27914 | -120.18039 | 10968 ft | 94 kts | 237° |
| 2026-05-07 09:32 | 70.27558 | -120.19688 | 10969 ft | 94 kts | 237° |
| 2026-05-07 09:32 | 70.27208 | -120.21310 | 10968 ft | 95 kts | 237° |
| 2026-05-07 09:32 | 70.26852 | -120.22961 | 10969 ft | 94 kts | 237° |
| 2026-05-07 09:33 | 70.26497 | -120.24606 | 10970 ft | 95 kts | 237° |
| 2026-05-07 09:33 | 70.26144 | -120.26241 | 10970 ft | 95 kts | 237° |
| 2026-05-07 09:33 | 70.25789 | -120.27879 | 10972 ft | 95 kts | 237° |
| 2026-05-07 09:33 | 70.25429 | -120.29541 | 10975 ft | 96 kts | 237° |
| 2026-05-07 09:34 | 70.25068 | -120.31213 | 10976 ft | 96 kts | 237° |
| 2026-05-07 09:34 | 70.24707 | -120.32881 | 10975 ft | 96 kts | 237° |
| 2026-05-07 09:34 | 70.24347 | -120.34543 | 10977 ft | 96 kts | 237° |
| 2026-05-07 09:34 | 70.23985 | -120.36205 | 10976 ft | 97 kts | 237° |
| 2026-05-07 09:35 | 70.23623 | -120.37877 | 10975 ft | 97 kts | 237° |
| 2026-05-07 09:35 | 70.23259 | -120.39549 | 10973 ft | 97 kts | 236° |
| 2026-05-07 09:35 | 70.22899 | -120.41200 | 10974 ft | 96 kts | 237° |
| 2026-05-07 09:35 | 70.22533 | -120.42879 | 10978 ft | 96 kts | 237° |
| 2026-05-07 09:36 | 70.22170 | -120.44546 | 10979 ft | 96 kts | 237° |
| 2026-05-07 09:36 | 70.21809 | -120.46206 | 10979 ft | 96 kts | 237° |
| 2026-05-07 09:36 | 70.21444 | -120.47875 | 10979 ft | 96 kts | 237° |
| 2026-05-07 09:36 | 70.21085 | -120.49516 | 10980 ft | 96 kts | 237° |
| 2026-05-07 09:37 | 70.20724 | -120.51172 | 10982 ft | 96 kts | 237° |
| 2026-05-07 09:37 | 70.20361 | -120.52833 | 10982 ft | 96 kts | 237° |
| 2026-05-07 09:37 | 70.19997 | -120.54503 | 10982 ft | 96 kts | 237° |
| 2026-05-07 09:37 | 70.19637 | -120.56142 | 10987 ft | 96 kts | 237° |
| 2026-05-07 09:38 | 70.19273 | -120.57799 | 10990 ft | 96 kts | 237° |
| 2026-05-07 09:38 | 70.18906 | -120.59476 | 10992 ft | 97 kts | 237° |
| 2026-05-07 09:38 | 70.18539 | -120.61148 | 10991 ft | 97 kts | 237° |
| 2026-05-07 09:38 | 70.18174 | -120.62807 | 10992 ft | 97 kts | 237° |
| 2026-05-07 09:39 | 70.17807 | -120.64478 | 10992 ft | 97 kts | 237° |
| 2026-05-07 09:39 | 70.17441 | -120.66143 | 10994 ft | 97 kts | 236° |
| 2026-05-07 09:39 | 70.17077 | -120.67793 | 10998 ft | 96 kts | 236° |
| 2026-05-07 09:39 | 70.16711 | -120.69454 | 10997 ft | 97 kts | 236° |
| 2026-05-07 09:40 | 70.16346 | -120.71114 | 10993 ft | 97 kts | 236° |
| 2026-05-07 09:40 | 70.15978 | -120.72781 | 10991 ft | 97 kts | 236° |
| 2026-05-07 09:40 | 70.15610 | -120.74447 | 10993 ft | 97 kts | 236° |
| 2026-05-07 09:40 | 70.15243 | -120.76102 | 10997 ft | 97 kts | 236° |
| 2026-05-07 09:41 | 70.14880 | -120.77752 | 10999 ft | 97 kts | 236° |
| 2026-05-07 09:41 | 70.14509 | -120.79432 | 10995 ft | 97 kts | 236° |
| 2026-05-07 09:41 | 70.14142 | -120.81089 | 10995 ft | 97 kts | 236° |
| 2026-05-07 09:41 | 70.13770 | -120.82770 | 10994 ft | 97 kts | 235° |
| 2026-05-07 09:42 | 70.13402 | -120.84428 | 10991 ft | 97 kts | 236° |
| 2026-05-07 09:42 | 70.13034 | -120.86079 | 10993 ft | 97 kts | 236° |
| 2026-05-07 09:42 | 70.12662 | -120.87749 | 10996 ft | 97 kts | 236° |
| 2026-05-07 09:42 | 70.12292 | -120.89407 | 10998 ft | 97 kts | 236° |
| 2026-05-07 09:43 | 70.11925 | -120.91054 | 11000 ft | 97 kts | 237° |
| 2026-05-07 09:43 | 70.11554 | -120.92728 | 11000 ft | 97 kts | 236° |
| 2026-05-07 09:43 | 70.11189 | -120.94366 | 11001 ft | 97 kts | 237° |
| 2026-05-07 09:43 | 70.10816 | -120.96040 | 11000 ft | 97 kts | 236° |
| 2026-05-07 09:44 | 70.10448 | -120.97694 | 10999 ft | 97 kts | 236° |
| 2026-05-07 09:44 | 70.10075 | -120.99365 | 10996 ft | 97 kts | 236° |
| 2026-05-07 09:44 | 70.09704 | -121.01028 | 10995 ft | 97 kts | 236° |
| 2026-05-07 09:44 | 70.09335 | -121.02678 | 10999 ft | 97 kts | 236° |
| 2026-05-07 09:45 | 70.08965 | -121.04330 | 11000 ft | 97 kts | 235° |
| 2026-05-07 09:45 | 70.08591 | -121.06001 | 10999 ft | 97 kts | 235° |
| 2026-05-07 09:45 | 70.08219 | -121.07656 | 10998 ft | 97 kts | 235° |
| 2026-05-07 09:45 | 70.07845 | -121.09322 | 10999 ft | 98 kts | 235° |
| 2026-05-07 09:46 | 70.07470 | -121.10984 | 10995 ft | 98 kts | 236° |
| 2026-05-07 09:46 | 70.07099 | -121.12631 | 10995 ft | 98 kts | 236° |
| 2026-05-07 09:46 | 70.06723 | -121.14297 | 11000 ft | 97 kts | 236° |
| 2026-05-07 09:46 | 70.06348 | -121.15964 | 11003 ft | 97 kts | 237° |
| 2026-05-07 09:47 | 70.05973 | -121.17631 | 11009 ft | 98 kts | 237° |
| 2026-05-07 09:47 | 70.05599 | -121.19292 | 11003 ft | 99 kts | 236° |
| 2026-05-07 09:47 | 70.05222 | -121.20962 | 11001 ft | 99 kts | 236° |
| 2026-05-07 09:47 | 70.04840 | -121.22658 | 10993 ft | 98 kts | 236° |
| 2026-05-07 09:48 | 70.04469 | -121.24300 | 10990 ft | 98 kts | 236° |
| 2026-05-07 09:48 | 70.04091 | -121.25976 | 10987 ft | 97 kts | 236° |
| 2026-05-07 09:48 | 70.03720 | -121.27615 | 10993 ft | 97 kts | 236° |
| 2026-05-07 09:48 | 70.03353 | -121.29235 | 10996 ft | 97 kts | 236° |
| 2026-05-07 09:49 | 70.02979 | -121.30886 | 11002 ft | 97 kts | 236° |
| 2026-05-07 09:49 | 70.02605 | -121.32532 | 11003 ft | 98 kts | 236° |
| 2026-05-07 09:49 | 70.02230 | -121.34187 | 10999 ft | 98 kts | 236° |
| 2026-05-07 09:49 | 70.01849 | -121.35861 | 10997 ft | 99 kts | 236° |
| 2026-05-07 09:50 | 70.01467 | -121.37537 | 10997 ft | 98 kts | 236° |
| 2026-05-07 09:50 | 70.01089 | -121.39196 | 10998 ft | 98 kts | 236° |
| 2026-05-07 09:50 | 70.00709 | -121.40861 | 11001 ft | 98 kts | 237° |
| 2026-05-07 09:50 | 70.00335 | -121.42503 | 10997 ft | 98 kts | 237° |
| 2026-05-07 09:51 | 69.99950 | -121.44199 | 11007 ft | 103 kts | 238° |
| 2026-05-07 09:51 | 69.99546 | -121.45987 | 11009 ft | 106 kts | 237° |
| 2026-05-07 09:51 | 69.99137 | -121.47791 | 11002 ft | 108 kts | 237° |
| 2026-05-07 09:51 | 69.98726 | -121.49597 | 11007 ft | 108 kts | 237° |
| 2026-05-07 09:52 | 69.98306 | -121.51437 | 11003 ft | 109 kts | 236° |
| 2026-05-07 09:52 | 69.97885 | -121.53281 | 10996 ft | 108 kts | 236° |
| 2026-05-07 09:52 | 69.97467 | -121.55103 | 10995 ft | 108 kts | 236° |
| 2026-05-07 09:52 | 69.97051 | -121.56918 | 11006 ft | 107 kts | 236° |
| 2026-05-07 09:53 | 69.96636 | -121.58720 | 10997 ft | 108 kts | 236° |
| 2026-05-07 09:53 | 69.96219 | -121.60532 | 10994 ft | 108 kts | 236° |
| 2026-05-07 09:53 | 69.95795 | -121.62372 | 11000 ft | 109 kts | 236° |
| 2026-05-07 09:53 | 69.95376 | -121.64196 | 10996 ft | 109 kts | 236° |
| 2026-05-07 09:54 | 69.94955 | -121.66026 | 10994 ft | 109 kts | 236° |
| 2026-05-07 09:54 | 69.94532 | -121.67855 | 10995 ft | 109 kts | 236° |
| 2026-05-07 09:54 | 69.94107 | -121.69701 | 11022 ft | 110 kts | 236° |
| 2026-05-07 09:54 | 69.93676 | -121.71579 | 10996 ft | 113 kts | 236° |
| 2026-05-07 09:55 | 69.93240 | -121.73466 | 10996 ft | 113 kts | 236° |
| 2026-05-07 09:55 | 69.92800 | -121.75368 | 11001 ft | 113 kts | 236° |
| 2026-05-07 09:55 | 69.92360 | -121.77271 | 11003 ft | 113 kts | 236° |
| 2026-05-07 09:55 | 69.91927 | -121.79144 | 11003 ft | 113 kts | 236° |
| 2026-05-07 09:56 | 69.91487 | -121.81041 | 10998 ft | 113 kts | 236° |
| 2026-05-07 09:56 | 69.91046 | -121.82943 | 11004 ft | 113 kts | 235° |
| 2026-05-07 09:56 | 69.90605 | -121.84840 | 10992 ft | 113 kts | 235° |
| 2026-05-07 09:56 | 69.90167 | -121.86722 | 10999 ft | 112 kts | 235° |
| 2026-05-07 09:57 | 69.89730 | -121.88596 | 10997 ft | 113 kts | 236° |
| 2026-05-07 09:57 | 69.89291 | -121.90475 | 11000 ft | 113 kts | 236° |
| 2026-05-07 09:57 | 69.88842 | -121.92402 | 10996 ft | 114 kts | 236° |
| 2026-05-07 09:57 | 69.88402 | -121.94286 | 10991 ft | 114 kts | 236° |
| 2026-05-07 09:58 | 69.87957 | -121.96186 | 10991 ft | 113 kts | 236° |
| 2026-05-07 09:58 | 69.87518 | -121.98067 | 11007 ft | 113 kts | 236° |
| 2026-05-07 09:58 | 69.87072 | -121.99976 | 11000 ft | 114 kts | 236° |
| 2026-05-07 09:58 | 69.86628 | -122.01874 | 10999 ft | 114 kts | 236° |
| 2026-05-07 09:59 | 69.86183 | -122.03770 | 10997 ft | 113 kts | 236° |
| 2026-05-07 09:59 | 69.85738 | -122.05672 | 11012 ft | 113 kts | 236° |
| 2026-05-07 09:59 | 69.85297 | -122.07546 | 11014 ft | 113 kts | 235° |
| 2026-05-07 09:59 | 69.84857 | -122.09421 | 11008 ft | 113 kts | 235° |
| 2026-05-07 10:00 | 69.84416 | -122.11289 | 11011 ft | 112 kts | 236° |
| 2026-05-07 10:00 | 69.83981 | -122.13135 | 11015 ft | 112 kts | 236° |
| 2026-05-07 10:00 | 69.83537 | -122.15019 | 11013 ft | 112 kts | 236° |
| 2026-05-07 10:00 | 69.83101 | -122.16866 | 11016 ft | 112 kts | 236° |
| 2026-05-07 10:01 | 69.82656 | -122.18746 | 11011 ft | 112 kts | 236° |
| 2026-05-07 10:01 | 69.82218 | -122.20597 | 11013 ft | 113 kts | 236° |
| 2026-05-07 10:01 | 69.81776 | -122.22469 | 11016 ft | 113 kts | 236° |
| 2026-05-07 10:01 | 69.81331 | -122.24352 | 11013 ft | 114 kts | 236° |
| 2026-05-07 10:02 | 69.80883 | -122.26241 | 11008 ft | 114 kts | 236° |
| 2026-05-07 10:02 | 69.80436 | -122.28124 | 11021 ft | 113 kts | 236° |
| 2026-05-07 10:02 | 69.79991 | -122.30003 | 11018 ft | 114 kts | 236° |
| 2026-05-07 10:02 | 69.79542 | -122.31895 | 11020 ft | 114 kts | 236° |
| 2026-05-07 10:03 | 69.79099 | -122.33761 | 11021 ft | 114 kts | 236° |
| 2026-05-07 10:03 | 69.78649 | -122.35651 | 11017 ft | 113 kts | 236° |
| 2026-05-07 10:03 | 69.78203 | -122.37522 | 11018 ft | 112 kts | 236° |
| 2026-05-07 10:03 | 69.77764 | -122.39361 | 11022 ft | 112 kts | 236° |
| 2026-05-07 10:04 | 69.77322 | -122.41212 | 11025 ft | 112 kts | 236° |
| 2026-05-07 10:04 | 69.76877 | -122.43077 | 11025 ft | 112 kts | 236° |
| 2026-05-07 10:04 | 69.76436 | -122.44921 | 11027 ft | 112 kts | 236° |
| 2026-05-07 10:04 | 69.75993 | -122.46770 | 11026 ft | 113 kts | 236° |
| 2026-05-07 10:05 | 69.75539 | -122.48668 | 10968 ft | 114 kts | 235° |
| 2026-05-07 10:05 | 69.75094 | -122.50512 | 10909 ft | 112 kts | 235° |
| 2026-05-07 10:05 | 69.74651 | -122.52336 | 10848 ft | 111 kts | 236° |
| 2026-05-07 10:05 | 69.74213 | -122.54153 | 10785 ft | 110 kts | 236° |
| 2026-05-07 10:06 | 69.73776 | -122.55965 | 10724 ft | 110 kts | 235° |
| 2026-05-07 10:06 | 69.73345 | -122.57751 | 10663 ft | 108 kts | 235° |
| 2026-05-07 10:06 | 69.72915 | -122.59533 | 10611 ft | 107 kts | 235° |
| 2026-05-07 10:06 | 69.72488 | -122.61299 | 10562 ft | 107 kts | 235° |
| 2026-05-07 10:07 | 69.72063 | -122.63057 | 10502 ft | 107 kts | 235° |
| 2026-05-07 10:07 | 69.71640 | -122.64807 | 10444 ft | 106 kts | 235° |
| 2026-05-07 10:07 | 69.71219 | -122.66547 | 10388 ft | 106 kts | 234° |
| 2026-05-07 10:07 | 69.70795 | -122.68293 | 10328 ft | 106 kts | 235° |
| 2026-05-07 10:08 | 69.70375 | -122.70028 | 10275 ft | 106 kts | 235° |
| 2026-05-07 10:08 | 69.69952 | -122.71778 | 10222 ft | 107 kts | 235° |
| 2026-05-07 10:08 | 69.69525 | -122.73541 | 10168 ft | 107 kts | 235° |
| 2026-05-07 10:08 | 69.69101 | -122.75288 | 10109 ft | 107 kts | 236° |
| 2026-05-07 10:09 | 69.68676 | -122.77041 | 10053 ft | 107 kts | 236° |
| 2026-05-07 10:09 | 69.68253 | -122.78784 | 10003 ft | 107 kts | 236° |
| 2026-05-07 10:09 | 69.67832 | -122.80547 | 9965 ft | 105 kts | 237° |
| 2026-05-07 10:09 | 69.67416 | -122.82273 | 9912 ft | 106 kts | 236° |
| 2026-05-07 10:10 | 69.66995 | -122.83995 | 9856 ft | 107 kts | 236° |
| 2026-05-07 10:10 | 69.66564 | -122.85761 | 9803 ft | 107 kts | 236° |
| 2026-05-07 10:10 | 69.66139 | -122.87499 | 9752 ft | 107 kts | 235° |
| 2026-05-07 10:10 | 69.65710 | -122.89254 | 9697 ft | 107 kts | 235° |
| 2026-05-07 10:11 | 69.65281 | -122.91003 | 9642 ft | 107 kts | 236° |
| 2026-05-07 10:11 | 69.64872 | -122.92804 | 9577 ft | 107 kts | 240° |
| 2026-05-07 10:11 | 69.64494 | -122.94621 | 9520 ft | 107 kts | 240° |
| 2026-05-07 10:11 | 69.64109 | -122.96455 | 9464 ft | 106 kts | 240° |
| 2026-05-07 10:12 | 69.63726 | -122.98267 | 9412 ft | 106 kts | 240° |
| 2026-05-07 10:12 | 69.63343 | -123.00065 | 9386 ft | 105 kts | 240° |
| 2026-05-07 10:12 | 69.62965 | -123.01834 | 9358 ft | 104 kts | 240° |
| 2026-05-07 10:12 | 69.62587 | -123.03587 | 9331 ft | 104 kts | 240° |
| 2026-05-07 10:13 | 69.62209 | -123.05342 | 9304 ft | 104 kts | 240° |
| 2026-05-07 10:13 | 69.61829 | -123.07107 | 9275 ft | 104 kts | 240° |
| 2026-05-07 10:13 | 69.61452 | -123.08856 | 9247 ft | 104 kts | 240° |
| 2026-05-07 10:13 | 69.61073 | -123.10626 | 9217 ft | 104 kts | 240° |
| 2026-05-07 10:14 | 69.60696 | -123.12378 | 9187 ft | 104 kts | 240° |
| 2026-05-07 10:14 | 69.60317 | -123.14137 | 9156 ft | 104 kts | 240° |
| 2026-05-07 10:14 | 69.59931 | -123.15910 | 9128 ft | 104 kts | 240° |
| 2026-05-07 10:14 | 69.59553 | -123.17651 | 9101 ft | 104 kts | 240° |
| 2026-05-07 10:15 | 69.59170 | -123.19420 | 9071 ft | 104 kts | 240° |
| 2026-05-07 10:15 | 69.58782 | -123.21201 | 9044 ft | 104 kts | 240° |
| 2026-05-07 10:15 | 69.58398 | -123.22966 | 9013 ft | 105 kts | 240° |
| 2026-05-07 10:15 | 69.58015 | -123.24715 | 8983 ft | 105 kts | 240° |
| 2026-05-07 10:16 | 69.57630 | -123.26470 | 8954 ft | 104 kts | 240° |
| 2026-05-07 10:16 | 69.57242 | -123.28243 | 8924 ft | 104 kts | 240° |
| 2026-05-07 10:16 | 69.56857 | -123.29990 | 8892 ft | 104 kts | 240° |
| 2026-05-07 10:16 | 69.56471 | -123.31734 | 8862 ft | 104 kts | 240° |
| 2026-05-07 10:17 | 69.56084 | -123.33475 | 8841 ft | 103 kts | 240° |
| 2026-05-07 10:17 | 69.55696 | -123.35204 | 8839 ft | 102 kts | 240° |
| 2026-05-07 10:17 | 69.55315 | -123.36908 | 8837 ft | 102 kts | 240° |
| 2026-05-07 10:17 | 69.54934 | -123.38598 | 8831 ft | 102 kts | 240° |
| 2026-05-07 10:18 | 69.54552 | -123.40308 | 8830 ft | 102 kts | 240° |
| 2026-05-07 10:18 | 69.54173 | -123.42007 | 8826 ft | 102 kts | 240° |
| 2026-05-07 10:18 | 69.53793 | -123.43728 | 8821 ft | 102 kts | 240° |
| 2026-05-07 10:18 | 69.53415 | -123.45418 | 8819 ft | 102 kts | 240° |
| 2026-05-07 10:19 | 69.53029 | -123.47144 | 8815 ft | 102 kts | 240° |
| 2026-05-07 10:19 | 69.52650 | -123.48835 | 8812 ft | 102 kts | 241° |
| 2026-05-07 10:19 | 69.52259 | -123.50564 | 8809 ft | 102 kts | 240° |
| 2026-05-07 10:19 | 69.51874 | -123.52279 | 8762 ft | 105 kts | 240° |
| 2026-05-07 10:20 | 69.51483 | -123.54041 | 8748 ft | 104 kts | 241° |
| 2026-05-07 10:20 | 69.51104 | -123.55726 | 8797 ft | 100 kts | 241° |
| 2026-05-07 10:20 | 69.50726 | -123.57396 | 8797 ft | 101 kts | 241° |
| 2026-05-07 10:20 | 69.50349 | -123.59069 | 8818 ft | 100 kts | 241° |
| 2026-05-07 10:21 | 69.49976 | -123.60729 | 8821 ft | 100 kts | 241° |
| 2026-05-07 10:21 | 69.49590 | -123.62436 | 8726 ft | 105 kts | 239° |
| 2026-05-07 10:21 | 69.49205 | -123.64204 | 8603 ft | 104 kts | 240° |
| 2026-05-07 10:21 | 69.48825 | -123.65939 | 8492 ft | 103 kts | 239° |
| 2026-05-07 10:22 | 69.48450 | -123.67660 | 8372 ft | 101 kts | 239° |
| 2026-05-07 10:22 | 69.48081 | -123.69340 | 8249 ft | 101 kts | 239° |
| 2026-05-07 10:22 | 69.47709 | -123.71044 | 8106 ft | 102 kts | 239° |
| 2026-05-07 10:22 | 69.47335 | -123.72750 | 7943 ft | 103 kts | 239° |
| 2026-05-07 10:23 | 69.46951 | -123.74493 | 7736 ft | 103 kts | 239° |
| 2026-05-07 10:23 | 69.46570 | -123.76217 | 7540 ft | 103 kts | 239° |
| 2026-05-07 10:23 | 69.46188 | -123.77911 | 7307 ft | 105 kts | 239° |
| 2026-05-07 10:23 | 69.45792 | -123.79675 | 6968 ft | 105 kts | 239° |
| 2026-05-07 10:24 | 69.45400 | -123.81382 | 6660 ft | 105 kts | 237° |
| 2026-05-07 10:24 | 69.45001 | -123.83089 | 6341 ft | 104 kts | 237° |
| 2026-05-07 10:24 | 69.44607 | -123.84798 | 6024 ft | 104 kts | 238° |
| 2026-05-07 10:24 | 69.44202 | -123.86507 | 5706 ft | 104 kts | 237° |
| 2026-05-07 10:25 | 69.43798 | -123.88191 | 5391 ft | 105 kts | 237° |
| 2026-05-07 10:25 | 69.43388 | -123.89896 | 5076 ft | 106 kts | 236° |
| 2026-05-07 10:25 | 69.42928 | -123.91541 | 4738 ft | 105 kts | 232° |
| 2026-05-07 10:25 | 69.42484 | -123.93106 | 4399 ft | 101 kts | 231° |
| 2026-05-07 10:26 | 69.42020 | -123.94550 | 4078 ft | 99 kts | 228° |
| 2026-05-07 10:26 | 69.41558 | -123.95957 | 3755 ft | 98 kts | 229° |
| 2026-05-07 10:26 | 69.41093 | -123.97373 | 3430 ft | 98 kts | 228° |
| 2026-05-07 10:26 | 69.40628 | -123.98786 | 3105 ft | 98 kts | 229° |
| 2026-05-07 10:27 | 69.40169 | -124.00208 | 2776 ft | 98 kts | 229° |
| 2026-05-07 10:27 | 69.39696 | -124.01585 | 2459 ft | 99 kts | 225° |
| 2026-05-07 10:27 | 69.39212 | -124.02919 | 2146 ft | 98 kts | 220° |
| 2026-05-07 10:27 | 69.38631 | -124.03962 | 1805 ft | 96 kts | 212° |
| 2026-05-07 10:28 | 69.38100 | -124.04923 | 1475 ft | 89 kts | 212° |
| 2026-05-07 10:28 | 69.37592 | -124.05673 | 1267 ft | 71 kts | 197° |
| 2026-05-07 10:28 | 69.37255 | -124.06082 | 1248 ft | 32 kts | 205° |
| 2026-05-07 10:28 | 69.37219 | -124.06147 | 1069 ft | 15 kts | 193° |
| 2026-05-07 10:29 | 69.37274 | -124.06093 | 777 ft | 12 kts | 217° |
| 2026-05-07 10:29 | 69.37148 | -124.06463 | 722 ft | 40 kts | 192° |
| 2026-05-07 10:29 | 69.36829 | -124.06698 | 521 ft | 59 kts | 187° |
| 2026-05-07 10:30 | 69.36304 | -124.07411 | 281 ft | 22 kts | 211° |
| 2026-05-07 10:30 | 69.36169 | -124.07560 | 229 ft | 19 kts | 202° |
| 2026-05-07 10:30 | 69.36063 | -124.07610 | 139 ft | 19 kts | 205° |
| 2026-05-07 10:30 | 69.35942 | -124.07717 | 107 ft | 16 kts | 211° |
| 2026-05-07 10:31 | 69.35836 | -124.07812 | 90 ft | 24 kts | 213° |
| 2026-05-07 10:31 | 69.35689 | -124.08035 | 68 ft | 20 kts | 208° |
| 2026-05-07 10:31 | 69.35592 | -124.08048 | 32 ft | 12 kts | 182° |
| 2026-05-07 10:31 | 69.35558 | -124.07929 | -14 ft | 4 kts | 143° |
| 2026-05-07 10:32 | 69.35564 | -124.07809 | -14 ft | 4 kts | 122° |
| 2026-05-07 10:32 | 69.35558 | -124.07735 | -13 ft | 5 kts | 128° |
| 2026-05-07 10:32 | 69.35548 | -124.07673 | -17 ft | 3 kts | 116° |
| 2026-05-07 10:32 | 69.35546 | -124.07656 | -20 ft | 1 kts | 116° |
| 2026-05-07 10:33 | 69.35547 | -124.07645 | -23 ft | 0 kts | 107° |